sensor_id;sensor_type;location;lat;lon;timestamp;pressure;altitude;pressure_sealevel;temperature;humidity
46642;BME280;32370;41.864;-88.124;2023-04-01T00:02:07;96667.59;;;16.18;100.00
46642;BME280;32370;41.864;-88.124;2023-04-01T00:04:35;96653.87;;;16.34;100.00
46642;BME280;32370;41.864;-88.124;2023-04-01T00:07:03;96657.42;;;16.30;100.00
46642;BME280;32370;41.864;-88.124;2023-04-01T00:09:30;96643.02;;;16.85;100.00
46642;BME280;32370;41.864;-88.124;2023-04-01T00:11:58;96650.52;;;16.56;100.00
46642;BME280;32370;41.864;-88.124;2023-04-01T00:14:26;96637.93;;;16.35;100.00
46642;BME280;32370;41.864;-88.124;2023-04-01T00:16:54;96612.07;;;16.23;100.00
46642;BME280;32370;41.864;-88.124;2023-04-01T00:19:22;96582.56;;;16.84;100.00
46642;BME280;32370;41.864;-88.124;2023-04-01T00:21:50;96564.38;;;16.78;100.00
46642;BME280;32370;41.864;-88.124;2023-04-01T00:24:18;96552.79;;;16.84;100.00
46642;BME280;32370;41.864;-88.124;2023-04-01T00:26:45;96552.04;;;16.73;100.00
46642;BME280;32370;41.864;-88.124;2023-04-01T00:29:14;96569.84;;;16.99;100.00
46642;BME280;32370;41.864;-88.124;2023-04-01T00:31:42;96563.40;;;17.24;100.00
46642;BME280;32370;41.864;-88.124;2023-04-01T00:34:09;96525.15;;;16.77;100.00
46642;BME280;32370;41.864;-88.124;2023-04-01T00:36:39;96460.61;;;17.25;100.00
46642;BME280;32370;41.864;-88.124;2023-04-01T00:39:06;96451.25;;;17.18;100.00
46642;BME280;32370;41.864;-88.124;2023-04-01T00:41:34;96445.78;;;17.22;100.00
46642;BME280;32370;41.864;-88.124;2023-04-01T00:44:22;96467.80;;;17.26;100.00
46642;BME280;32370;41.864;-88.124;2023-04-01T00:46:51;96409.11;;;17.20;100.00
46642;BME280;32370;41.864;-88.124;2023-04-01T00:49:22;96406.53;;;17.35;100.00
46642;BME280;32370;41.864;-88.124;2023-04-01T00:51:54;96390.47;;;17.00;100.00
46642;BME280;32370;41.864;-88.124;2023-04-01T00:54:25;96397.99;;;17.10;100.00
46642;BME280;32370;41.864;-88.124;2023-04-01T00:56:57;96401.19;;;17.35;100.00
46642;BME280;32370;41.864;-88.124;2023-04-01T00:59:29;96419.34;;;17.13;100.00
46642;BME280;32370;41.864;-88.124;2023-04-01T01:01:59;96400.92;;;17.23;100.00
46642;BME280;32370;41.864;-88.124;2023-04-01T01:04:29;96430.23;;;17.29;100.00
46642;BME280;32370;41.864;-88.124;2023-04-01T01:07:07;96432.63;;;17.38;100.00
46642;BME280;32370;41.864;-88.124;2023-04-01T01:09:44;96550.04;;;17.12;100.00
46642;BME280;32370;41.864;-88.124;2023-04-01T01:12:17;96737.55;;;17.03;100.00
46642;BME280;32370;41.864;-88.124;2023-04-01T01:14:54;96758.71;;;14.80;100.00
46642;BME280;32370;41.864;-88.124;2023-04-01T01:17:31;96772.57;;;11.94;100.00
46642;BME280;32370;41.864;-88.124;2023-04-01T01:21:00;96789.04;;;12.23;100.00
46642;BME280;32370;41.864;-88.124;2023-04-01T01:24:30;96813.56;;;12.26;100.00
46642;BME280;32370;41.864;-88.124;2023-04-01T01:27:06;96818.52;;;11.52;100.00
46642;BME280;32370;41.864;-88.124;2023-04-01T01:29:53;96830.86;;;11.66;100.00
46642;BME280;32370;41.864;-88.124;2023-04-01T01:32:41;96812.76;;;10.95;100.00
46642;BME280;32370;41.864;-88.124;2023-04-01T01:35:20;96820.41;;;11.38;100.00
46642;BME280;32370;41.864;-88.124;2023-04-01T01:37:53;96800.48;;;11.24;100.00
46642;BME280;32370;41.864;-88.124;2023-04-01T01:40:25;96770.53;;;11.17;100.00
46642;BME280;32370;41.864;-88.124;2023-04-01T01:42:56;96753.74;;;10.92;100.00
46642;BME280;32370;41.864;-88.124;2023-04-01T01:45:26;96765.58;;;11.47;100.00
46642;BME280;32370;41.864;-88.124;2023-04-01T01:47:56;96788.37;;;11.72;100.00
46642;BME280;32370;41.864;-88.124;2023-04-01T01:50:24;96755.00;;;12.27;100.00
46642;BME280;32370;41.864;-88.124;2023-04-01T01:53:01;96773.27;;;12.11;100.00
46642;BME280;32370;41.864;-88.124;2023-04-01T01:55:31;96772.81;;;11.92;100.00
46642;BME280;32370;41.864;-88.124;2023-04-01T01:58:02;96758.89;;;11.99;98.10
46642;BME280;32370;41.864;-88.124;2023-04-01T02:00:33;96766.64;;;11.98;98.00
46642;BME280;32370;41.864;-88.124;2023-04-01T02:03:02;96761.65;;;11.84;97.70
46642;BME280;32370;41.864;-88.124;2023-04-01T02:05:31;96718.90;;;11.87;94.82
46642;BME280;32370;41.864;-88.124;2023-04-01T02:08:03;96688.93;;;11.61;94.86
46642;BME280;32370;41.864;-88.124;2023-04-01T02:10:37;96688.12;;;11.31;94.79
46642;BME280;32370;41.864;-88.124;2023-04-01T02:13:11;96680.06;;;11.61;91.78
46642;BME280;32370;41.864;-88.124;2023-04-01T02:15:46;96665.32;;;11.28;93.92
46642;BME280;32370;41.864;-88.124;2023-04-01T02:18:15;96682.07;;;11.44;93.40
46642;BME280;32370;41.864;-88.124;2023-04-01T02:20:46;96682.18;;;10.98;95.02
46642;BME280;32370;41.864;-88.124;2023-04-01T02:23:15;96682.27;;;11.25;92.06
46642;BME280;32370;41.864;-88.124;2023-04-01T02:25:44;96686.23;;;11.57;94.26
46642;BME280;32370;41.864;-88.124;2023-04-01T02:28:14;96680.50;;;11.48;94.95
46642;BME280;32370;41.864;-88.124;2023-04-01T02:30:45;96670.00;;;11.45;94.15
46642;BME280;32370;41.864;-88.124;2023-04-01T02:33:15;96673.59;;;11.10;93.95
46642;BME280;32370;41.864;-88.124;2023-04-01T02:35:44;96678.95;;;11.38;93.53
46642;BME280;32370;41.864;-88.124;2023-04-01T02:38:13;96691.24;;;11.45;94.61
46642;BME280;32370;41.864;-88.124;2023-04-01T02:40:45;96717.35;;;11.71;94.24
46642;BME280;32370;41.864;-88.124;2023-04-01T02:43:13;96717.87;;;11.67;95.18
46642;BME280;32370;41.864;-88.124;2023-04-01T02:45:41;96729.71;;;11.64;95.78
46642;BME280;32370;41.864;-88.124;2023-04-01T02:48:09;96734.65;;;11.70;95.95
46642;BME280;32370;41.864;-88.124;2023-04-01T02:50:37;96735.41;;;11.57;96.76
46642;BME280;32370;41.864;-88.124;2023-04-01T02:53:04;96738.05;;;11.25;97.17
46642;BME280;32370;41.864;-88.124;2023-04-01T02:55:32;96749.74;;;11.43;97.03
46642;BME280;32370;41.864;-88.124;2023-04-01T02:58:00;96751.49;;;11.32;97.54
46642;BME280;32370;41.864;-88.124;2023-04-01T03:00:29;96749.01;;;11.52;97.43
46642;BME280;32370;41.864;-88.124;2023-04-01T03:02:56;96758.50;;;11.50;98.19
46642;BME280;32370;41.864;-88.124;2023-04-01T03:05:24;96751.29;;;11.33;98.06
46642;BME280;32370;41.864;-88.124;2023-04-01T03:07:53;96754.81;;;11.42;98.65
46642;BME280;32370;41.864;-88.124;2023-04-01T03:10:21;96750.06;;;10.89;100.00
46642;BME280;32370;41.864;-88.124;2023-04-01T03:12:48;96746.46;;;11.10;100.00
46642;BME280;32370;41.864;-88.124;2023-04-01T03:15:17;96739.21;;;11.02;100.00
46642;BME280;32370;41.864;-88.124;2023-04-01T03:17:45;96737.62;;;10.97;100.00
46642;BME280;32370;41.864;-88.124;2023-04-01T03:20:14;96749.49;;;10.98;100.00
46642;BME280;32370;41.864;-88.124;2023-04-01T03:22:42;96745.54;;;10.81;100.00
46642;BME280;32370;41.864;-88.124;2023-04-01T03:25:10;96736.26;;;10.88;100.00
46642;BME280;32370;41.864;-88.124;2023-04-01T03:27:39;96736.66;;;10.58;100.00
46642;BME280;32370;41.864;-88.124;2023-04-01T03:30:08;96752.71;;;10.60;100.00
46642;BME280;32370;41.864;-88.124;2023-04-01T03:32:36;96765.27;;;10.45;100.00
46642;BME280;32370;41.864;-88.124;2023-04-01T03:35:05;96783.60;;;10.70;100.00
46642;BME280;32370;41.864;-88.124;2023-04-01T03:37:32;96789.82;;;10.65;100.00
46642;BME280;32370;41.864;-88.124;2023-04-01T03:40:01;96791.57;;;10.53;100.00
46642;BME280;32370;41.864;-88.124;2023-04-01T03:42:30;96811.91;;;10.95;100.00
46642;BME280;32370;41.864;-88.124;2023-04-01T03:44:58;96819.95;;;10.66;100.00
46642;BME280;32370;41.864;-88.124;2023-04-01T03:47:26;96828.70;;;10.58;100.00
46642;BME280;32370;41.864;-88.124;2023-04-01T03:49:54;96827.45;;;10.74;100.00
46642;BME280;32370;41.864;-88.124;2023-04-01T03:52:22;96842.60;;;10.22;98.04
46642;BME280;32370;41.864;-88.124;2023-04-01T03:54:50;96852.60;;;11.03;98.65
46642;BME280;32370;41.864;-88.124;2023-04-01T03:57:17;96869.58;;;10.71;99.38
46642;BME280;32370;41.864;-88.124;2023-04-01T03:59:45;96884.27;;;10.63;100.00
46642;BME280;32370;41.864;-88.124;2023-04-01T04:02:13;96891.03;;;10.85;100.00
46642;BME280;32370;41.864;-88.124;2023-04-01T04:04:42;96901.14;;;10.96;99.75
46642;BME280;32370;41.864;-88.124;2023-04-01T04:07:10;96909.36;;;10.89;100.00
46642;BME280;32370;41.864;-88.124;2023-04-01T04:09:38;96902.39;;;10.50;100.00
46642;BME280;32370;41.864;-88.124;2023-04-01T04:12:06;96915.74;;;10.56;100.00
46642;BME280;32370;41.864;-88.124;2023-04-01T04:14:34;96917.60;;;10.49;100.00
46642;BME280;32370;41.864;-88.124;2023-04-01T04:17:02;96921.98;;;10.53;100.00
46642;BME280;32370;41.864;-88.124;2023-04-01T04:19:32;96914.32;;;9.94;100.00
46642;BME280;32370;41.864;-88.124;2023-04-01T04:22:00;96916.58;;;10.18;100.00
46642;BME280;32370;41.864;-88.124;2023-04-01T04:24:28;96922.44;;;10.39;100.00
46642;BME280;32370;41.864;-88.124;2023-04-01T04:26:56;96929.64;;;9.81;100.00
46642;BME280;32370;41.864;-88.124;2023-04-01T04:29:24;96928.93;;;9.95;100.00
46642;BME280;32370;41.864;-88.124;2023-04-01T04:31:52;96921.98;;;9.32;94.50
46642;BME280;32370;41.864;-88.124;2023-04-01T04:34:20;96930.91;;;9.53;89.64
46642;BME280;32370;41.864;-88.124;2023-04-01T04:36:48;96931.22;;;9.35;87.29
46642;BME280;32370;41.864;-88.124;2023-04-01T04:39:16;96957.77;;;9.72;84.95
46642;BME280;32370;41.864;-88.124;2023-04-01T04:41:45;96954.77;;;9.02;82.67
46642;BME280;32370;41.864;-88.124;2023-04-01T04:44:13;96968.87;;;8.79;82.03
46642;BME280;32370;41.864;-88.124;2023-04-01T04:46:41;96965.63;;;8.64;81.57
46642;BME280;32370;41.864;-88.124;2023-04-01T04:49:08;96969.19;;;8.57;82.61
46642;BME280;32370;41.864;-88.124;2023-04-01T04:51:36;96960.74;;;8.19;83.85
46642;BME280;32370;41.864;-88.124;2023-04-01T04:54:05;96968.98;;;8.67;82.63
46642;BME280;32370;41.864;-88.124;2023-04-01T04:56:33;96970.86;;;7.99;82.05
46642;BME280;32370;41.864;-88.124;2023-04-01T04:59:01;96978.95;;;8.26;83.51
46642;BME280;32370;41.864;-88.124;2023-04-01T05:01:29;96979.98;;;8.21;82.95
46642;BME280;32370;41.864;-88.124;2023-04-01T05:03:58;96984.65;;;8.17;83.45
46642;BME280;32370;41.864;-88.124;2023-04-01T05:06:26;96983.70;;;8.03;82.81
46642;BME280;32370;41.864;-88.124;2023-04-01T05:08:54;96990.16;;;8.07;82.56
46642;BME280;32370;41.864;-88.124;2023-04-01T05:11:22;97001.35;;;7.83;83.61
46642;BME280;32370;41.864;-88.124;2023-04-01T05:13:50;97004.70;;;7.68;83.30
46642;BME280;32370;41.864;-88.124;2023-04-01T05:16:19;97000.50;;;7.35;83.55
46642;BME280;32370;41.864;-88.124;2023-04-01T05:18:48;97002.73;;;7.24;84.79
46642;BME280;32370;41.864;-88.124;2023-04-01T05:21:16;96996.85;;;7.38;85.39
46642;BME280;32370;41.864;-88.124;2023-04-01T05:23:43;96999.26;;;7.29;83.60
46642;BME280;32370;41.864;-88.124;2023-04-01T05:26:13;96982.48;;;6.69;82.49
46642;BME280;32370;41.864;-88.124;2023-04-01T05:28:42;96977.44;;;6.96;83.23
46642;BME280;32370;41.864;-88.124;2023-04-01T05:31:10;96995.90;;;6.68;84.44
46642;BME280;32370;41.864;-88.124;2023-04-01T05:33:37;96984.48;;;6.63;86.61
46642;BME280;32370;41.864;-88.124;2023-04-01T05:36:09;96987.76;;;6.49;86.49
46642;BME280;32370;41.864;-88.124;2023-04-01T05:38:37;96986.97;;;6.66;87.23
46642;BME280;32370;41.864;-88.124;2023-04-01T05:41:05;96992.53;;;6.42;87.57
46642;BME280;32370;41.864;-88.124;2023-04-01T05:43:36;96986.29;;;6.58;87.42
46642;BME280;32370;41.864;-88.124;2023-04-01T05:46:04;96978.80;;;7.01;86.86
46642;BME280;32370;41.864;-88.124;2023-04-01T05:48:34;96981.47;;;6.74;86.50
46642;BME280;32370;41.864;-88.124;2023-04-01T05:51:03;96979.04;;;6.15;87.04
46642;BME280;32370;41.864;-88.124;2023-04-01T05:53:32;96966.48;;;5.96;86.98
46642;BME280;32370;41.864;-88.124;2023-04-01T05:56:03;96975.31;;;6.12;85.11
46642;BME280;32370;41.864;-88.124;2023-04-01T05:58:31;96969.64;;;6.19;86.53
46642;BME280;32370;41.864;-88.124;2023-04-01T06:01:03;96963.06;;;5.81;84.00
46642;BME280;32370;41.864;-88.124;2023-04-01T06:03:32;96967.95;;;5.92;85.01
46642;BME280;32370;41.864;-88.124;2023-04-01T06:06:01;96967.92;;;6.00;84.01
46642;BME280;32370;41.864;-88.124;2023-04-01T06:08:31;96954.46;;;5.90;83.74
46642;BME280;32370;41.864;-88.124;2023-04-01T06:11:07;96958.57;;;6.09;83.94
46642;BME280;32370;41.864;-88.124;2023-04-01T06:13:50;96952.86;;;5.57;83.70
46642;BME280;32370;41.864;-88.124;2023-04-01T06:16:30;96949.37;;;5.42;84.84
46642;BME280;32370;41.864;-88.124;2023-04-01T06:19:09;96934.90;;;5.09;84.29
46642;BME280;32370;41.864;-88.124;2023-04-01T06:21:58;96931.97;;;5.46;85.55
46642;BME280;32370;41.864;-88.124;2023-04-01T06:24:42;96930.25;;;5.57;84.52
46642;BME280;32370;41.864;-88.124;2023-04-01T06:27:20;96929.45;;;5.23;84.76
46642;BME280;32370;41.864;-88.124;2023-04-01T06:30:00;96920.14;;;5.09;85.79
46642;BME280;32370;41.864;-88.124;2023-04-01T06:32:42;96908.62;;;5.00;84.68
46642;BME280;32370;41.864;-88.124;2023-04-01T06:35:31;96904.69;;;5.22;85.72
46642;BME280;32370;41.864;-88.124;2023-04-01T06:38:11;96894.54;;;4.85;82.21
46642;BME280;32370;41.864;-88.124;2023-04-01T06:41:34;96891.68;;;5.92;84.34
46642;BME280;32370;41.864;-88.124;2023-04-01T06:44:16;96890.75;;;4.99;84.17
46642;BME280;32370;41.864;-88.124;2023-04-01T06:46:47;96881.70;;;5.05;84.76
46642;BME280;32370;41.864;-88.124;2023-04-01T06:49:27;96886.44;;;4.89;85.45
46642;BME280;32370;41.864;-88.124;2023-04-01T06:52:05;96886.60;;;4.58;86.12
46642;BME280;32370;41.864;-88.124;2023-04-01T06:54:39;96878.24;;;4.71;84.82
46642;BME280;32370;41.864;-88.124;2023-04-01T06:57:20;96868.61;;;4.71;84.96
46642;BME280;32370;41.864;-88.124;2023-04-01T06:59:49;96872.07;;;4.95;84.32
46642;BME280;32370;41.864;-88.124;2023-04-01T07:02:25;96873.43;;;4.47;84.90
46642;BME280;32370;41.864;-88.124;2023-04-01T07:04:58;96879.25;;;4.71;84.87
46642;BME280;32370;41.864;-88.124;2023-04-01T07:07:34;96877.79;;;4.50;83.93
46642;BME280;32370;41.864;-88.124;2023-04-01T07:10:09;96878.44;;;5.08;83.23
46642;BME280;32370;41.864;-88.124;2023-04-01T07:12:44;96872.21;;;4.64;82.88
46642;BME280;32370;41.864;-88.124;2023-04-01T07:15:18;96868.53;;;4.16;83.30
46642;BME280;32370;41.864;-88.124;2023-04-01T07:17:54;96874.15;;;4.56;83.48
46642;BME280;32370;41.864;-88.124;2023-04-01T07:20:27;96878.83;;;5.18;81.95
46642;BME280;32370;41.864;-88.124;2023-04-01T07:22:59;96874.78;;;4.72;81.04
46642;BME280;32370;41.864;-88.124;2023-04-01T07:25:31;96878.53;;;4.68;81.70
46642;BME280;32370;41.864;-88.124;2023-04-01T07:28:05;96877.05;;;4.94;81.27
46642;BME280;32370;41.864;-88.124;2023-04-01T07:30:46;96878.92;;;4.88;81.68
46642;BME280;32370;41.864;-88.124;2023-04-01T07:33:21;96873.40;;;4.71;82.12
46642;BME280;32370;41.864;-88.124;2023-04-01T07:35:55;96886.60;;;4.16;82.47
46642;BME280;32370;41.864;-88.124;2023-04-01T07:38:33;96886.34;;;4.59;81.70
46642;BME280;32370;41.864;-88.124;2023-04-01T07:41:10;96890.25;;;4.53;81.73
46642;BME280;32370;41.864;-88.124;2023-04-01T07:44:06;96879.75;;;5.07;81.44
46642;BME280;32370;41.864;-88.124;2023-04-01T07:46:51;96873.34;;;4.88;81.75
46642;BME280;32370;41.864;-88.124;2023-04-01T07:49:30;96865.89;;;4.37;82.40
46642;BME280;32370;41.864;-88.124;2023-04-01T07:52:06;96868.33;;;4.52;83.03
46642;BME280;32370;41.864;-88.124;2023-04-01T07:54:42;96873.73;;;4.54;83.44
46642;BME280;32370;41.864;-88.124;2023-04-01T07:57:22;96881.43;;;4.62;83.55
46642;BME280;32370;41.864;-88.124;2023-04-01T07:59:59;96887.92;;;3.97;85.91
46642;BME280;32370;41.864;-88.124;2023-04-01T08:02:38;96882.82;;;4.16;85.09
46642;BME280;32370;41.864;-88.124;2023-04-01T08:05:17;96877.46;;;4.10;85.13
46642;BME280;32370;41.864;-88.124;2023-04-01T08:07:53;96873.40;;;4.06;85.38
46642;BME280;32370;41.864;-88.124;2023-04-01T08:10:31;96865.48;;;4.13;85.57
46642;BME280;32370;41.864;-88.124;2023-04-01T08:13:08;96850.09;;;4.47;86.06
46642;BME280;32370;41.864;-88.124;2023-04-01T08:15:46;96837.68;;;4.05;85.62
46642;BME280;32370;41.864;-88.124;2023-04-01T08:18:23;96835.06;;;4.50;86.34
46642;BME280;32370;41.864;-88.124;2023-04-01T08:21:01;96839.76;;;4.66;85.96
46642;BME280;32370;41.864;-88.124;2023-04-01T08:23:32;96844.59;;;4.26;86.52
46642;BME280;32370;41.864;-88.124;2023-04-01T08:26:04;96832.18;;;4.55;86.05
46642;BME280;32370;41.864;-88.124;2023-04-01T08:28:37;96829.57;;;3.90;86.82
46642;BME280;32370;41.864;-88.124;2023-04-01T08:31:10;96834.15;;;4.21;87.08
46642;BME280;32370;41.864;-88.124;2023-04-01T08:33:41;96838.11;;;3.85;87.62
46642;BME280;32370;41.864;-88.124;2023-04-01T08:36:12;96835.12;;;3.64;86.66
46642;BME280;32370;41.864;-88.124;2023-04-01T08:38:44;96841.48;;;4.26;86.33
46642;BME280;32370;41.864;-88.124;2023-04-01T08:41:30;96828.07;;;4.32;85.57
46642;BME280;32370;41.864;-88.124;2023-04-01T08:44:20;96829.82;;;4.29;85.10
46642;BME280;32370;41.864;-88.124;2023-04-01T08:47:35;96835.63;;;4.20;84.98
46642;BME280;32370;41.864;-88.124;2023-04-01T08:50:27;96830.73;;;4.05;84.53
46642;BME280;32370;41.864;-88.124;2023-04-01T08:53:08;96829.40;;;3.73;84.60
46642;BME280;32370;41.864;-88.124;2023-04-01T08:55:44;96832.34;;;4.10;84.84
46642;BME280;32370;41.864;-88.124;2023-04-01T08:59:28;96834.12;;;4.06;84.58
46642;BME280;32370;41.864;-88.124;2023-04-01T09:02:14;96824.55;;;2.92;86.40
46642;BME280;32370;41.864;-88.124;2023-04-01T09:05:06;96826.76;;;2.82;88.59
46642;BME280;32370;41.864;-88.124;2023-04-01T09:07:43;96831.59;;;3.33;88.32
46642;BME280;32370;41.864;-88.124;2023-04-01T09:10:57;96819.33;;;3.70;88.51
46642;BME280;32370;41.864;-88.124;2023-04-01T09:13:38;96812.08;;;3.17;87.84
46642;BME280;32370;41.864;-88.124;2023-04-01T09:16:20;96810.33;;;2.76;90.04
46642;BME280;32370;41.864;-88.124;2023-04-01T09:19:06;96815.48;;;3.08;88.97
46642;BME280;32370;41.864;-88.124;2023-04-01T09:22:01;96805.90;;;3.14;88.77
46642;BME280;32370;41.864;-88.124;2023-04-01T09:25:37;96814.18;;;3.57;87.38
46642;BME280;32370;41.864;-88.124;2023-04-01T09:28:14;96799.20;;;3.10;88.81
46642;BME280;32370;41.864;-88.124;2023-04-01T09:31:01;96797.72;;;3.65;87.71
46642;BME280;32370;41.864;-88.124;2023-04-01T09:34:11;96791.07;;;3.28;84.08
46642;BME280;32370;41.864;-88.124;2023-04-01T09:36:46;96794.39;;;2.40;88.96
46642;BME280;32370;41.864;-88.124;2023-04-01T09:39:29;96795.93;;;2.85;87.97
46642;BME280;32370;41.864;-88.124;2023-04-01T09:42:25;96827.12;;;3.13;87.89
46642;BME280;32370;41.864;-88.124;2023-04-01T09:45:00;96802.94;;;2.75;88.69
46642;BME280;32370;41.864;-88.124;2023-04-01T09:47:41;96817.19;;;2.77;91.14
46642;BME280;32370;41.864;-88.124;2023-04-01T09:50:24;96828.88;;;2.54;96.13
46642;BME280;32370;41.864;-88.124;2023-04-01T09:53:02;96838.52;;;1.25;100.00
46642;BME280;32370;41.864;-88.124;2023-04-01T09:56:15;96824.35;;;1.20;100.00
46642;BME280;32370;41.864;-88.124;2023-04-01T09:59:01;96833.37;;;1.02;100.00
46642;BME280;32370;41.864;-88.124;2023-04-01T10:01:45;96852.79;;;1.09;100.00
46642;BME280;32370;41.864;-88.124;2023-04-01T10:04:40;96844.65;;;0.94;100.00
46642;BME280;32370;41.864;-88.124;2023-04-01T10:07:33;96848.78;;;1.29;100.00
46642;BME280;32370;41.864;-88.124;2023-04-01T10:11:03;96850.12;;;1.63;100.00
46642;BME280;32370;41.864;-88.124;2023-04-01T10:16:03;96874.69;;;1.53;100.00
46642;BME280;32370;41.864;-88.124;2023-04-01T10:19:23;96884.43;;;0.45;100.00
46642;BME280;32370;41.864;-88.124;2023-04-01T10:22:28;96891.64;;;0.66;100.00
46642;BME280;32370;41.864;-88.124;2023-04-01T10:26:55;96887.21;;;1.54;100.00
46642;BME280;32370;41.864;-88.124;2023-04-01T10:29:45;96887.14;;;0.71;100.00
46642;BME280;32370;41.864;-88.124;2023-04-01T10:32:38;96885.91;;;0.01;100.00
46642;BME280;32370;41.864;-88.124;2023-04-01T10:35:36;96890.33;;;0.24;100.00
46642;BME280;32370;41.864;-88.124;2023-04-01T10:40:31;96887.00;;;1.74;100.00
46642;BME280;32370;41.864;-88.124;2023-04-01T10:44:30;96892.20;;;1.79;100.00
46642;BME280;32370;41.864;-88.124;2023-04-01T10:47:28;96887.14;;;0.90;100.00
46642;BME280;32370;41.864;-88.124;2023-04-01T10:51:25;96888.61;;;0.94;100.00
46642;BME280;32370;41.864;-88.124;2023-04-01T10:54:21;96879.24;;;1.40;100.00
46642;BME280;32370;41.864;-88.124;2023-04-01T10:56:59;96877.90;;;1.65;100.00
46642;BME280;32370;41.864;-88.124;2023-04-01T11:00:36;96872.37;;;1.54;100.00
46642;BME280;32370;41.864;-88.124;2023-04-01T11:03:34;96868.15;;;1.65;100.00
46642;BME280;32370;41.864;-88.124;2023-04-01T11:07:22;96865.86;;;2.05;100.00
46642;BME280;32370;41.864;-88.124;2023-04-01T11:11:11;96866.35;;;1.95;100.00
46642;BME280;32370;41.864;-88.124;2023-04-01T11:14:49;96870.76;;;1.72;100.00
46642;BME280;32370;41.864;-88.124;2023-04-01T11:17:44;96870.71;;;1.85;100.00
46642;BME280;32370;41.864;-88.124;2023-04-01T11:21:46;96871.28;;;2.33;100.00
46642;BME280;32370;41.864;-88.124;2023-04-01T11:24:39;96866.53;;;1.84;100.00
46642;BME280;32370;41.864;-88.124;2023-04-01T11:27:23;96862.17;;;1.84;100.00
46642;BME280;32370;41.864;-88.124;2023-04-01T11:30:19;96859.63;;;2.03;100.00
46642;BME280;32370;41.864;-88.124;2023-04-01T11:32:54;96860.53;;;1.69;100.00
46642;BME280;32370;41.864;-88.124;2023-04-01T11:35:36;96864.23;;;1.97;100.00
46642;BME280;32370;41.864;-88.124;2023-04-01T11:38:13;96865.11;;;2.54;100.00
46642;BME280;32370;41.864;-88.124;2023-04-01T11:40:51;96863.30;;;1.84;100.00
46642;BME280;32370;41.864;-88.124;2023-04-01T11:43:27;96858.53;;;2.13;100.00
46642;BME280;32370;41.864;-88.124;2023-04-01T11:46:03;96863.62;;;2.03;100.00
46642;BME280;32370;41.864;-88.124;2023-04-01T11:48:45;96862.99;;;2.02;100.00
46642;BME280;32370;41.864;-88.124;2023-04-01T11:51:50;96866.45;;;1.31;100.00
46642;BME280;32370;41.864;-88.124;2023-04-01T11:54:34;96868.83;;;1.28;100.00
46642;BME280;32370;41.864;-88.124;2023-04-01T11:57:31;96874.14;;;1.76;100.00
46642;BME280;32370;41.864;-88.124;2023-04-01T12:00:21;96872.47;;;1.57;100.00
46642;BME280;32370;41.864;-88.124;2023-04-01T12:03:02;96875.41;;;1.69;100.00
46642;BME280;32370;41.864;-88.124;2023-04-01T12:05:43;96879.51;;;0.88;100.00
46642;BME280;32370;41.864;-88.124;2023-04-01T12:08:22;96882.22;;;0.81;100.00
46642;BME280;32370;41.864;-88.124;2023-04-01T12:10:58;96892.53;;;0.88;100.00
46642;BME280;32370;41.864;-88.124;2023-04-01T12:13:35;96891.06;;;0.96;100.00
46642;BME280;32370;41.864;-88.124;2023-04-01T12:16:15;96893.20;;;0.83;100.00
46642;BME280;32370;41.864;-88.124;2023-04-01T12:18:51;96893.93;;;0.80;97.01
46642;BME280;32370;41.864;-88.124;2023-04-01T12:21:27;96908.64;;;0.84;100.00
46642;BME280;32370;41.864;-88.124;2023-04-01T12:24:38;96917.94;;;0.95;99.42
46642;BME280;32370;41.864;-88.124;2023-04-01T12:27:20;96921.58;;;0.78;97.93
46642;BME280;32370;41.864;-88.124;2023-04-01T12:30:12;96941.16;;;0.76;98.21
46642;BME280;32370;41.864;-88.124;2023-04-01T12:32:52;96938.20;;;1.07;96.65
46642;BME280;32370;41.864;-88.124;2023-04-01T12:35:25;96958.12;;;0.71;93.44
46642;BME280;32370;41.864;-88.124;2023-04-01T12:38:08;96951.20;;;0.82;94.90
46642;BME280;32370;41.864;-88.124;2023-04-01T12:40:51;96964.52;;;0.90;96.18
46642;BME280;32370;41.864;-88.124;2023-04-01T12:43:54;96971.10;;;0.61;97.84
46642;BME280;32370;41.864;-88.124;2023-04-01T12:46:35;96976.44;;;0.86;97.49
46642;BME280;32370;41.864;-88.124;2023-04-01T12:49:27;96980.43;;;0.24;97.33
46642;BME280;32370;41.864;-88.124;2023-04-01T12:52:10;96993.56;;;0.45;99.24
46642;BME280;32370;41.864;-88.124;2023-04-01T12:56:00;96986.67;;;1.36;96.69
46642;BME280;32370;41.864;-88.124;2023-04-01T12:58:42;97004.47;;;0.33;97.08
46642;BME280;32370;41.864;-88.124;2023-04-01T13:01:40;97002.83;;;0.50;96.25
46642;BME280;32370;41.864;-88.124;2023-04-01T13:04:47;97011.82;;;0.39;99.63
46642;BME280;32370;41.864;-88.124;2023-04-01T13:07:46;97019.65;;;0.12;100.00
46642;BME280;32370;41.864;-88.124;2023-04-01T13:10:30;97025.46;;;0.89;99.22
46642;BME280;32370;41.864;-88.124;2023-04-01T13:13:22;97029.87;;;0.48;99.47
46642;BME280;32370;41.864;-88.124;2023-04-01T13:15:57;97032.71;;;0.28;98.58
46642;BME280;32370;41.864;-88.124;2023-04-01T13:18:34;97039.30;;;0.29;98.68
46642;BME280;32370;41.864;-88.124;2023-04-01T13:21:14;97044.86;;;0.58;100.00
46642;BME280;32370;41.864;-88.124;2023-04-01T13:23:51;97048.78;;;0.61;100.00
46642;BME280;32370;41.864;-88.124;2023-04-01T13:26:29;97054.09;;;0.53;99.01
46642;BME280;32370;41.864;-88.124;2023-04-01T13:29:06;97061.46;;;0.73;100.00
46642;BME280;32370;41.864;-88.124;2023-04-01T13:31:47;97061.53;;;0.73;100.00
46642;BME280;32370;41.864;-88.124;2023-04-01T13:34:25;97079.49;;;0.48;100.00
46642;BME280;32370;41.864;-88.124;2023-04-01T13:37:07;97081.59;;;0.48;100.00
46642;BME280;32370;41.864;-88.124;2023-04-01T13:39:46;97082.44;;;0.66;100.00
46642;BME280;32370;41.864;-88.124;2023-04-01T13:42:22;97098.96;;;0.45;100.00
46642;BME280;32370;41.864;-88.124;2023-04-01T13:44:57;97097.66;;;0.45;100.00
46642;BME280;32370;41.864;-88.124;2023-04-01T13:48:26;97102.78;;;1.37;100.00
46642;BME280;32370;41.864;-88.124;2023-04-01T13:51:07;97111.55;;;0.86;100.00
46642;BME280;32370;41.864;-88.124;2023-04-01T13:54:47;97120.36;;;1.17;100.00